• Join FlightAware (Why Join?)
  • Login
  • US Flag 
03:18PM EDT


 

Airport Tracker/Info


-or-


 

Live Flight TrackerFlight Track Log ✈ N143DE ✈ 15-Oct-2013 ✈ KFLL - KRYY

Flight Track Log - Related Links

Times and Time Zones

All times are in EDT time to prevent confusion due to time zone crossing. See the N143DE flight status page for this flight to view local times or setup timezone preferences in your user account.

Time Position Orientation Groundspeed Altitude Reporting Facility
EDT Latitude Longitude Course Direction KTS MPH feet Rate Location/Type
09:05AM 26.0725 -80.1481 61° Northeast 94 108 800  Level Miami Center
09:05AM 26.0858 -80.1208 61° Northeast 147 169 2,300 1,440 Climbing Miami Center
09:06AM 26.1117 -80.0797 55° Northeast 165 190 3,500 1,080 Climbing Miami Center
09:07AM 26.1597 -80.0858 353° North 179 206 4,800 660 Climbing Miami Center
09:08AM 26.2069 -80.1194 327° Northwest 210 242 5,000  Climbing Miami Center
09:09AM 26.2500 -80.1483 329° Northwest 216 249 4,900  Descending Miami Center
09:09AM 26.2519 -80.1556 287° West 217 250 5,000 1,680 Climbing Miami Center
09:10AM 26.2994 -80.1844 331° Northwest 217 250 6,600 1,740 Climbing Miami Center
09:10AM 26.3033 -80.1917 301° West 211 243 6,800 1,140 Climbing Miami Center
09:11AM 26.3506 -80.2325 322° Northwest 206 237 7,800 1,140 Climbing Miami Center
09:11AM 26.3486 -80.2322 173° South 207 238 8,000 1,380 Climbing Miami Center
09:12AM 26.3894 -80.2706 320° Northwest 229 264 9,200 1,260 Climbing Miami Center
09:13AM 26.4386 -80.3067 327° Northwest 224 258 10,400 1,200 Climbing Miami Center
09:14AM 26.4900 -80.3383 331° Northwest 213 245 11,600 1,140 Climbing Miami Center
09:15AM 26.5467 -80.3308 North 198 228 12,700 1,080 Climbing Miami Center
09:16AM 26.6117 -80.3211 North 222 255 13,800 960 Climbing Miami Center
09:17AM 26.6700 -80.3206 360° North 217 250 14,700 960 Climbing Miami Center
09:18AM 26.7258 -80.3456 338° Northwest 217 250 15,800 960 Climbing Miami Center
09:19AM 26.7819 -80.3633 344° North 212 244 16,700 900 Climbing Miami Center
09:20AM 26.8378 -80.3861 340° North 210 242 17,700 900 Climbing Miami Center
09:21AM 26.8850 -80.4178 329° Northwest 204 235 18,500 780 Climbing Miami Center
09:22AM 26.9344 -80.4447 334° Northwest 199 229 19,300 840 Climbing Miami Center
09:23AM 26.9839 -80.4719 334° Northwest 194 223 20,300 840 Climbing Miami Center
09:24AM 27.0314 -80.4967 335° Northwest 194 223 21,000 600 Climbing Miami Center
09:25AM 27.0767 -80.5217 334° Northwest 194 223 21,600 540 Climbing Miami Center
09:26AM 27.1261 -80.5489 334° Northwest 194 223 22,100 420 Climbing Miami Center
09:27AM 27.1733 -80.5758 333° Northwest 194 223 22,500 420 Climbing Miami Center
09:28AM 27.2228 -80.6056 332° Northwest 194 223 23,000 240 Climbing Miami Center
09:29AM 27.2783 -80.6331 336° Northwest 199 229 23,000  Level Miami Center
09:30AM 27.3358 -80.6653 334° Northwest 211 243 23,000  Level Miami Center
09:31AM 27.3917 -80.6928 336° Northwest 217 250 23,000  Level Miami Center
09:32AM 27.4492 -80.7275 332° Northwest 217 250 23,000  Level Miami Center
09:33AM 27.5067 -80.7575 335° Northwest 217 250 23,000  Level Miami Center
09:34AM 27.5581 -80.7875 333° Northwest 222 255 23,000  Level Miami Center
09:35AM 27.6200 -80.8178 337° Northwest 228 262 23,000  Level Miami Center
09:36AM 27.6775 -80.8525 332° Northwest 234 269 23,000  Level Miami Center
09:37AM 27.7331 -80.8825 334° Northwest 234 269 23,000  Level Miami Center
09:38AM 27.7947 -80.9175 333° Northwest 234 269 23,000  Level Miami Center
09:39AM 27.8522 -80.9456 337° Northwest 234 269 23,000  Level Miami Center
09:40AM 27.9075 -80.9803 331° Northwest 234 269 23,000  Level Miami Center
09:41AM 27.9672 -81.0108 336° Northwest 234 269 23,000  Level Miami Center
09:42AM 28.0247 -81.0458 332° Northwest 234 269 23,000  Level Miami Center
09:43AM 28.0822 -81.0761 335° Northwest 234 269 23,000  Level Miami Center
09:44AM 28.1439 -81.1114 333° Northwest 234 269 23,000  Level Miami Center
09:46AM 28.2406 -81.1656 334° Northwest 242 278 23,000  Level Jacksonville Center
09:47AM 28.2994 -81.1975 334° Northwest 236 272 23,000  Level Jacksonville Center
09:48AM 28.3561 -81.2297 333° Northwest 236 272 23,000  Level Jacksonville Center
09:49AM 28.4131 -81.2617 334° Northwest 230 265 23,000  Level Jacksonville Center
09:50AM 28.4719 -81.2961 333° Northwest 230 265 23,000  Level Jacksonville Center
09:51AM 28.5306 -81.3283 334° Northwest 225 259 23,000  Level Jacksonville Center
09:52AM 28.5936 -81.3486 344° North 225 259 23,000  Level Jacksonville Center
09:53AM 28.6583 -81.3594 352° North 225 259 23,000  Level Jacksonville Center
09:54AM 28.7253 -81.3750 348° North 230 265 23,000  Level Jacksonville Center
09:55AM 28.7900 -81.3883 350° North 236 272 23,000  Level Jacksonville Center
09:56AM 28.8528 -81.4017 349° North 236 272 23,000  Level Jacksonville Center
09:57AM 28.9178 -81.4194 347° North 236 272 23,000  Level Jacksonville Center
09:58AM 28.9806 -81.4328 349° North 236 272 23,000  Level Jacksonville Center
09:59AM 29.0475 -81.4461 350° North 236 272 23,000  Level Jacksonville Center
10:00AM 29.1103 -81.4619 348° North 236 272 23,000  Level Jacksonville Center
10:01AM 29.1711 -81.4753 349° North 236 272 23,000  Level Jacksonville Center
10:02AM 29.2275 -81.4886 348° North 236 272 23,000  Level Jacksonville Center
10:03AM 29.2903 -81.5044 348° North 236 272 23,000  Level Jacksonville Center
10:04AM 29.3511 -81.5178 349° North 226 260 23,000  Level Jacksonville Center
10:05AM 29.4117 -81.5314 349° North 221 254 23,000  Level Jacksonville Center
10:06AM 29.4744 -81.5425 351° North 221 254 23,000  Level Jacksonville Center
10:07AM 29.5331 -81.5558 349° North 221 254 23,000  Level Jacksonville Center
10:08AM 29.5958 -81.5717 348° North 221 254 23,000  Level Jacksonville Center
10:09AM 29.6564 -81.5853 349° North 221 254 23,000  Level Jacksonville Center
10:10AM 29.7192 -81.5964 351° North 221 254 23,000  Level Jacksonville Center
10:11AM 29.7800 -81.6100 349° North 221 254 23,000  Level Jacksonville Center
10:12AM 29.8406 -81.6236 349° North 221 254 23,000  Level Jacksonville Center
10:13AM 29.9011 -81.6372 349° North 221 254 23,000  Level Jacksonville Center
10:14AM 29.9619 -81.6508 349° North 221 254 23,000  Level Jacksonville Center
10:15AM 30.0225 -81.6644 349° North 221 254 23,000  Level Jacksonville Center
10:16AM 30.0811 -81.6781 349° North 221 254 23,000  Level Jacksonville Center
10:17AM 30.1419 -81.6917 349° North 221 254 23,000  Level Jacksonville Center
10:18AM 30.2006 -81.7028 351° North 221 254 23,000  Level Jacksonville Center
10:19AM 30.2611 -81.7142 351° North 221 254 23,000  Level Jacksonville Center
10:20AM 30.3217 -81.7303 347° North 221 254 23,000  Level Jacksonville Center
10:21AM 30.3825 -81.7417 351° North 221 254 23,000 -240 Level Jacksonville Center
10:22AM 30.4453 -81.7600 346° North 221 254 22,600 -420 Descending Jacksonville Center
10:23AM 30.5039 -81.7908 336° Northwest 221 254 22,200 -300 Descending Jacksonville Center
10:24AM 30.5711 -81.8261 336° Northwest 238 274 22,000 -120 Descending Jacksonville Center
10:25AM 30.6319 -81.8569 336° Northwest 238 274 22,000  Level Jacksonville Center
10:26AM 30.6928 -81.8853 338° Northwest 238 274 22,000  Level Jacksonville Center
10:27AM 30.7492 -81.9161 335° Northwest 233 268 22,000  Level Jacksonville Center
10:28AM 30.8081 -81.9419 339° North 233 268 22,000  Level Jacksonville Center
10:29AM 30.8686 -81.9728 336° Northwest 233 268 22,000  Level Jacksonville Center
10:30AM 30.9272 -82.0014 337° Northwest 233 268 22,000  Level Jacksonville Center
10:31AM 30.9839 -82.0322 335° Northwest 233 268 22,000  Level Jacksonville Center
10:32AM 31.0425 -82.0608 337° Northwest 233 268 22,000  Level Jacksonville Center
10:33AM 31.1014 -82.0944 334° Northwest 233 268 22,000  Level Jacksonville Center
10:34AM 31.1600 -82.1206 339° North 233 268 22,000  Level Jacksonville Center
10:35AM 31.2206 -82.1492 338° Northwest 233 268 22,000  Level Jacksonville Center
10:36AM 31.2792 -82.1803 336° Northwest 233 268 22,000  Level Jacksonville Center
10:37AM 31.3400 -82.2092 338° Northwest 238 274 22,000  Level Jacksonville Center
10:38AM 31.3986 -82.2378 337° Northwest 238 274 22,000  Level Jacksonville Center
10:39AM 31.4592 -82.2692 336° Northwest 233 268 22,000  Level Jacksonville Center
10:40AM 31.5178 -82.2981 337° Northwest 233 268 22,000  Level Jacksonville Center
10:41AM 31.5722 -82.3244 338° Northwest 232 267 22,000  Level Jacksonville Center
10:42AM 31.6331 -82.3558 336° Northwest 238 274 22,000  Level Jacksonville Center
10:43AM 31.6917 -82.3847 337° Northwest 238 274 22,000  Level Jacksonville Center
10:44AM 31.7522 -82.4136 338° Northwest 238 274 22,000  Level Jacksonville Center
10:45AM 31.8067 -82.4428 336° Northwest 233 268 22,000 -420 Level Jacksonville Center
10:46AM 31.8714 -82.4767 336° Northwest 238 274 21,200 -840 Descending Jacksonville Center
10:47AM 31.9383 -82.5106 337° Northwest 244 281 20,400 -600 Descending Jacksonville Center
10:48AM 32.0075 -82.5447 337° Northwest 256 295 20,000 -240 Descending Jacksonville Center
10:49AM 32.0722 -82.5786 336° Northwest 256 295 20,000  Level Jacksonville Center
10:50AM 32.1181 -82.6067 333° Northwest 250 288 20,000  Level Atlanta Center
10:51AM 32.1789 -82.6328 340° North 250 288 20,000  Level Atlanta Center
10:52AM 32.2442 -82.6686 335° Northwest 256 295 20,000  Level Atlanta Center
10:53AM 32.3092 -82.6994 338° Northwest 256 295 20,000  Level Atlanta Center
10:54AM 32.3722 -82.7331 336° Northwest 256 295 20,000  Level Atlanta Center
10:55AM 32.4392 -82.7689 336° Northwest 256 295 20,000  Level Atlanta Center
10:56AM 32.5044 -82.8025 337° Northwest 251 289 20,000  Level Atlanta Center
10:57AM 32.5736 -82.8383 336° Northwest 251 289 20,000  Level Atlanta Center
10:58AM 32.6242 -82.8944 317° Northwest 246 283 20,000 -360 Level Atlanta Center
10:59AM 32.6811 -82.9506 320° Northwest 252 290 19,300 -840 Descending Atlanta Center
11:00AM 32.7400 -83.0092 320° Northwest 271 312 18,400 -900 Descending Atlanta Center
11:01AM 32.7969 -83.0653 320° Northwest 271 312 17,600 -900 Descending Atlanta Center
11:02AM 32.8494 -83.1192 319° Northwest 265 305 16,700 -840 Descending Atlanta Center
11:03AM 32.9061 -83.1778 319° Northwest 265 305 16,000 -840 Descending Atlanta Center
11:04AM 32.9631 -83.2317 322° Northwest 265 305 15,100 -1,200 Descending Atlanta Center
11:05AM 33.0281 -83.3053 316° Northwest 273 314 13,600 -1,320 Descending Atlanta Center
11:06AM 33.0889 -83.3644 321° Northwest 280 322 12,500 -1,080 Descending Atlanta Center
11:07AM 33.1497 -83.4261 320° Northwest 290 334 11,500 -1,080 Descending Atlanta Center
11:08AM 33.2106 -83.4900 319° Northwest 290 334 10,400 -1,080 Descending Atlanta Center
11:09AM 33.2631 -83.5419 320° Northwest 284 327 9,400 -1,140 Descending Atlanta Center
11:10AM 33.3217 -83.6039 319° Northwest 284 327 8,200 -720 Descending Atlanta Center
11:11AM 33.3783 -83.6558 323° Northwest 277 319 8,000 -120 Descending Atlanta Center
11:12AM 33.4347 -83.7078 322° Northwest 259 298 8,000 -600 Level Atlanta Center
11:13AM 33.4914 -83.7547 325° Northwest 249 287 6,900 -780 Descending Atlanta Center
11:14AM 33.6167 -83.8167 338° Northwest 245 282 6,000 -360 Descending Atlanta TRACON
11:15AM 33.6667 -83.8500 331° Northwest 239 275 6,000  Level Atlanta TRACON
11:16AM 33.7333 -83.8833 337° Northwest 244 281 6,000  Level Atlanta TRACON
11:17AM 33.7833 -83.9167 331° Northwest 245 282 6,000  Level Atlanta TRACON
11:18AM 33.8333 -83.9667 320° Northwest 244 281 6,000  Level Atlanta TRACON
11:19AM 33.8833 -84.0333 312° West 245 282 6,000  Level Atlanta TRACON
11:20AM 33.9167 -84.1000 301° West 243 280 6,000  Level Atlanta TRACON
11:21AM 33.9500 -84.1500 309° West 242 278 6,000  Level Atlanta TRACON
11:22AM 34.0000 -84.2167 312° West 228 262 6,000  Level Atlanta TRACON
11:23AM 34.0167 -84.2833 287° West 224 258 6,000  Level Atlanta TRACON
11:24AM 34.0167 -84.3667 270° West 220 253 6,000  Level Atlanta TRACON
11:25AM 34.0333 -84.4333 287° West 220 253 6,000 -360 Level Atlanta TRACON
11:26AM 34.0667 -84.4833 309° West 229 264 5,400 -900 Descending Atlanta TRACON
11:27AM 34.1000 -84.5667 296° West 238 274 4,200 -780 Descending Atlanta TRACON
11:28AM 34.1167 -84.6333 287° West 213 245 3,900 -180 Descending Atlanta TRACON
11:29AM 34.1000 -84.6833 248° West 169 194 3,900  Level Atlanta TRACON
11:30AM 34.1000 -84.7333 270° West 163 188 4,000  Climbing Atlanta TRACON
11:31AM 34.1000 -84.7833 270° West 151 174 4,000 -60 Level Atlanta TRACON
11:32AM 34.0833 -84.8333 248° West 164 189 3,900 -360 Descending Atlanta TRACON
11:34AM 34.0167 -84.8333 180° South 141 162 3,000 -360 Descending Atlanta TRACON
11:35AM 34.0167 -84.8000 90° East 118 136 3,000 -180 Level Atlanta TRACON
11:36AM 34.0000 -84.7500 112° Southeast 143 165 2,700 -180 Descending Atlanta TRACON
11:37AM 34.0167 -84.7167 59° Northeast 109 125 2,700 -180 Level Atlanta TRACON
11:38AM 34.0167 -84.6833 90° East 125 144 2,400 -300 Descending Atlanta TRACON